UKV742 EGCC-EHAM
Flight info
| Callsign | UKV742 |
|---|---|
| Flight time | 0h 51m |
| Altitude | 35000 |
| Route | DESIG L603 LAMSO |
| Aircraft | B738/M-SDE2E3FGIRWY/LB1 |
Departure
| Time | 2026-05-03 21:04 |
|---|---|
| Airport | Manchester Airport (EGCC) |
Arrival
| Time | 2026-05-03 21:55 |
|---|---|
| Airport | Amsterdam Airport Schiphol (EHAM) |
| Time | Latitude | Longitude | Altitude | Speed | Heading |
|---|---|---|---|---|---|
| 2026-05-03 20:21 | 53.36013 | -2.26926 | 267 ft | 0 kts | 314° |
| 2026-05-03 20:42 | 53.36013 | -2.26925 | 266 ft | 0 kts | 314° |
| 2026-05-03 20:49 | 53.36011 | -2.26921 | 267 ft | 1 kts | 314° |
| 2026-05-03 20:49 | 53.36004 | -2.26909 | 267 ft | 2 kts | 308° |
| 2026-05-03 20:50 | 53.35997 | -2.26887 | 268 ft | 2 kts | 290° |
| 2026-05-03 20:50 | 53.35993 | -2.26863 | 268 ft | 2 kts | 276° |
| 2026-05-03 20:50 | 53.35993 | -2.26838 | 269 ft | 2 kts | 262° |
| 2026-05-03 20:50 | 53.35996 | -2.26814 | 269 ft | 2 kts | 247° |
| 2026-05-03 20:51 | 53.36004 | -2.26793 | 269 ft | 1 kts | 233° |
| 2026-05-03 20:51 | 53.36008 | -2.26784 | 268 ft | 1 kts | 229° |
| 2026-05-03 20:51 | 53.36008 | -2.26783 | 268 ft | 0 kts | 229° |
| 2026-05-03 20:53 | 53.36005 | -2.26789 | 268 ft | 2 kts | 229° |
| 2026-05-03 20:54 | 53.35984 | -2.26828 | 269 ft | 6 kts | 220° |
| 2026-05-03 20:54 | 53.35881 | -2.26878 | 268 ft | 8 kts | 216° |
| 2026-05-03 20:54 | 53.35841 | -2.26972 | 266 ft | 11 kts | 241° |
| 2026-05-03 20:55 | 53.35789 | -2.27102 | 260 ft | 16 kts | 232° |
| 2026-05-03 20:55 | 53.35710 | -2.27269 | 252 ft | 20 kts | 232° |
| 2026-05-03 20:55 | 53.35622 | -2.27455 | 246 ft | 18 kts | 233° |
| 2026-05-03 20:55 | 53.35574 | -2.27557 | 244 ft | 8 kts | 228° |
| 2026-05-03 20:56 | 53.35530 | -2.27640 | 243 ft | 10 kts | 232° |
| 2026-05-03 20:56 | 53.35477 | -2.27748 | 240 ft | 12 kts | 237° |
| 2026-05-03 20:56 | 53.35459 | -2.27886 | 239 ft | 9 kts | 268° |
| 2026-05-03 20:56 | 53.35431 | -2.27963 | 239 ft | 4 kts | 224° |
| 2026-05-03 20:57 | 53.35408 | -2.28001 | 239 ft | 4 kts | 224° |
| 2026-05-03 20:57 | 53.35367 | -2.28067 | 237 ft | 12 kts | 224° |
| 2026-05-03 20:57 | 53.35293 | -2.28190 | 236 ft | 17 kts | 227° |
| 2026-05-03 20:57 | 53.35199 | -2.28370 | 232 ft | 20 kts | 231° |
| 2026-05-03 20:58 | 53.35123 | -2.28525 | 230 ft | 16 kts | 231° |
| 2026-05-03 20:58 | 53.35049 | -2.28679 | 227 ft | 17 kts | 231° |
| 2026-05-03 20:58 | 53.34963 | -2.28831 | 224 ft | 19 kts | 225° |
| 2026-05-03 20:58 | 53.34869 | -2.28990 | 217 ft | 15 kts | 226° |
| 2026-05-03 20:59 | 53.34789 | -2.29146 | 209 ft | 19 kts | 232° |
| 2026-05-03 20:59 | 53.34718 | -2.29287 | 201 ft | 15 kts | 220° |
| 2026-05-03 20:59 | 53.34681 | -2.29322 | 200 ft | 0 kts | 198° |
| 2026-05-03 21:00 | 53.34680 | -2.29322 | 200 ft | 0 kts | 198° |
| 2026-05-03 21:00 | 53.34649 | -2.29332 | 198 ft | 9 kts | 185° |
| 2026-05-03 21:01 | 53.34580 | -2.29317 | 196 ft | 10 kts | 155° |
| 2026-05-03 21:01 | 53.34541 | -2.29243 | 198 ft | 6 kts | 97° |
| 2026-05-03 21:01 | 53.34548 | -2.29207 | 200 ft | 0 kts | 55° |
| 2026-05-03 21:02 | 53.34549 | -2.29204 | 200 ft | 0 kts | 55° |
| 2026-05-03 21:03 | 53.34580 | -2.29136 | 203 ft | 31 kts | 50° |
| 2026-05-03 21:03 | 53.34864 | -2.28553 | 225 ft | 96 kts | 51° |
| 2026-05-03 21:03 | 53.35412 | -2.27431 | 249 ft | 149 kts | 51° |
| 2026-05-03 21:03 | 53.36104 | -2.25993 | 640 ft | 164 kts | 51° |
| 2026-05-03 21:04 | 53.36775 | -2.24558 | 1489 ft | 156 kts | 52° |
| 2026-05-03 21:04 | 53.37467 | -2.23051 | 2061 ft | 170 kts | 52° |
| 2026-05-03 21:04 | 53.38215 | -2.21440 | 2625 ft | 186 kts | 51° |
| 2026-05-03 21:04 | 53.39051 | -2.19677 | 3194 ft | 202 kts | 51° |
| 2026-05-03 21:05 | 53.39968 | -2.17752 | 3695 ft | 224 kts | 51° |
| 2026-05-03 21:05 | 53.40984 | -2.15619 | 4290 ft | 244 kts | 51° |
| 2026-05-03 21:05 | 53.42073 | -2.13330 | 4867 ft | 263 kts | 51° |
| 2026-05-03 21:05 | 53.43243 | -2.10870 | 4985 ft | 276 kts | 51° |
| 2026-05-03 21:06 | 53.44423 | -2.08386 | 4992 ft | 270 kts | 51° |
| 2026-05-03 21:06 | 53.45612 | -2.05884 | 5126 ft | 285 kts | 51° |
| 2026-05-03 21:06 | 53.46835 | -2.03309 | 6262 ft | 282 kts | 51° |
| 2026-05-03 21:06 | 53.48058 | -2.00732 | 7188 ft | 287 kts | 51° |
| 2026-05-03 21:07 | 53.49294 | -1.98128 | 8144 ft | 290 kts | 51° |
| 2026-05-03 21:07 | 53.50542 | -1.95493 | 9032 ft | 295 kts | 51° |
| 2026-05-03 21:07 | 53.51622 | -1.92550 | 9919 ft | 299 kts | 68° |
| 2026-05-03 21:07 | 53.52064 | -1.89189 | 10774 ft | 304 kts | 86° |
| 2026-05-03 21:08 | 53.51928 | -1.85642 | 11596 ft | 309 kts | 99° |
| 2026-05-03 21:08 | 53.51470 | -1.82095 | 12178 ft | 322 kts | 104° |
| 2026-05-03 21:08 | 53.50855 | -1.78359 | 12674 ft | 337 kts | 106° |
| 2026-05-03 21:08 | 53.50172 | -1.74526 | 13135 ft | 352 kts | 107° |
| 2026-05-03 21:09 | 53.49453 | -1.70567 | 13644 ft | 365 kts | 107° |
| 2026-05-03 21:09 | 53.48713 | -1.66478 | 14456 ft | 368 kts | 107° |
| 2026-05-03 21:09 | 53.47974 | -1.62360 | 15261 ft | 372 kts | 107° |
| 2026-05-03 21:09 | 53.47232 | -1.58215 | 16022 ft | 376 kts | 107° |
| 2026-05-03 21:10 | 53.46478 | -1.54008 | 16771 ft | 379 kts | 107° |
| 2026-05-03 21:10 | 53.45713 | -1.49761 | 17499 ft | 383 kts | 107° |
| 2026-05-03 21:10 | 53.44949 | -1.45527 | 18216 ft | 387 kts | 107° |
| 2026-05-03 21:10 | 53.44171 | -1.41223 | 18915 ft | 390 kts | 107° |
| 2026-05-03 21:11 | 53.43374 | -1.36814 | 19588 ft | 395 kts | 107° |
| 2026-05-03 21:11 | 53.42581 | -1.32432 | 20288 ft | 398 kts | 108° |
| 2026-05-03 21:11 | 53.41775 | -1.27984 | 20959 ft | 401 kts | 108° |
| 2026-05-03 21:11 | 53.40970 | -1.23537 | 21634 ft | 404 kts | 108° |
| 2026-05-03 21:12 | 53.40159 | -1.19067 | 22261 ft | 407 kts | 108° |
| 2026-05-03 21:12 | 53.39332 | -1.14526 | 22883 ft | 410 kts | 108° |
| 2026-05-03 21:12 | 53.38498 | -1.09963 | 23472 ft | 414 kts | 108° |
| 2026-05-03 21:12 | 53.37653 | -1.05352 | 24083 ft | 416 kts | 108° |
| 2026-05-03 21:13 | 53.36807 | -1.00745 | 24613 ft | 420 kts | 108° |
| 2026-05-03 21:13 | 53.35938 | -0.96023 | 25160 ft | 423 kts | 108° |
| 2026-05-03 21:13 | 53.35068 | -0.91319 | 25637 ft | 427 kts | 109° |
| 2026-05-03 21:13 | 53.34194 | -0.86600 | 26153 ft | 430 kts | 109° |
| 2026-05-03 21:14 | 53.33306 | -0.81819 | 26621 ft | 434 kts | 109° |
| 2026-05-03 21:14 | 53.32414 | -0.77024 | 27086 ft | 438 kts | 109° |
| 2026-05-03 21:14 | 53.31502 | -0.72138 | 27546 ft | 441 kts | 109° |
| 2026-05-03 21:14 | 53.30597 | -0.67293 | 27982 ft | 445 kts | 109° |
| 2026-05-03 21:15 | 53.29674 | -0.62370 | 28428 ft | 448 kts | 109° |
| 2026-05-03 21:15 | 53.28737 | -0.57389 | 28860 ft | 451 kts | 109° |
| 2026-05-03 21:15 | 53.27787 | -0.52347 | 29276 ft | 454 kts | 109° |
| 2026-05-03 21:15 | 53.26833 | -0.47296 | 29705 ft | 457 kts | 109° |
| 2026-05-03 21:16 | 53.25876 | -0.42237 | 30278 ft | 456 kts | 109° |
| 2026-05-03 21:16 | 53.24919 | -0.37190 | 30895 ft | 453 kts | 110° |
| 2026-05-03 21:16 | 53.23964 | -0.32170 | 31349 ft | 453 kts | 111° |
| 2026-05-03 21:16 | 53.23016 | -0.27207 | 31782 ft | 452 kts | 111° |
| 2026-05-03 21:17 | 53.22051 | -0.22162 | 32218 ft | 452 kts | 111° |
| 2026-05-03 21:17 | 53.21418 | -0.18866 | 32496 ft | 451 kts | 111° |
| 2026-05-03 21:17 | 53.20131 | -0.12189 | 33044 ft | 450 kts | 111° |
| 2026-05-03 21:17 | 53.19143 | -0.07074 | 33463 ft | 449 kts | 111° |
| 2026-05-03 21:18 | 53.18173 | -0.02060 | 33836 ft | 449 kts | 111° |
| 2026-05-03 21:18 | 53.17192 | 0.03000 | 34174 ft | 448 kts | 111° |
| 2026-05-03 21:18 | 53.16212 | 0.08038 | 34493 ft | 448 kts | 111° |
| 2026-05-03 21:18 | 53.15260 | 0.12921 | 34821 ft | 447 kts | 111° |
| 2026-05-03 21:19 | 53.13265 | 0.23095 | 34908 ft | 452 kts | 111° |
| 2026-05-03 21:19 | 53.11325 | 0.32959 | 34913 ft | 447 kts | 111° |
| 2026-05-03 21:20 | 53.09370 | 0.42849 | 34908 ft | 447 kts | 111° |
| 2026-05-03 21:20 | 53.07407 | 0.52708 | 34908 ft | 449 kts | 111° |
| 2026-05-03 21:21 | 53.05450 | 0.62492 | 34897 ft | 450 kts | 111° |
| 2026-05-03 21:21 | 53.03457 | 0.72408 | 34913 ft | 451 kts | 112° |
| 2026-05-03 21:22 | 53.01461 | 0.82300 | 34911 ft | 449 kts | 112° |
| 2026-05-03 21:22 | 52.99454 | 0.92194 | 34914 ft | 451 kts | 112° |
| 2026-05-03 21:23 | 52.97539 | 1.02190 | 34914 ft | 452 kts | 108° |
| 2026-05-03 21:23 | 52.96220 | 1.12372 | 34908 ft | 454 kts | 104° |
| 2026-05-03 21:24 | 52.95095 | 1.22780 | 34907 ft | 455 kts | 103° |
| 2026-05-03 21:24 | 52.93975 | 1.33045 | 34916 ft | 454 kts | 104° |
| 2026-05-03 21:25 | 52.92790 | 1.43449 | 34909 ft | 453 kts | 104° |
| 2026-05-03 21:25 | 52.91591 | 1.53696 | 34909 ft | 454 kts | 105° |
| 2026-05-03 21:26 | 52.90374 | 1.63897 | 34867 ft | 452 kts | 105° |
| 2026-05-03 21:26 | 52.89766 | 1.68979 | 34619 ft | 447 kts | 105° |
| 2026-05-03 21:26 | 52.89159 | 1.74029 | 34076 ft | 447 kts | 106° |
| 2026-05-03 21:27 | 52.88551 | 1.79044 | 33369 ft | 450 kts | 106° |
| 2026-05-03 21:27 | 52.87927 | 1.84154 | 32643 ft | 452 kts | 105° |
| 2026-05-03 21:27 | 52.87309 | 1.89210 | 32095 ft | 450 kts | 105° |
| 2026-05-03 21:27 | 52.86694 | 1.94234 | 31522 ft | 448 kts | 105° |
| 2026-05-03 21:28 | 52.86064 | 1.99363 | 30926 ft | 446 kts | 105° |
| 2026-05-03 21:28 | 52.85443 | 2.04400 | 30310 ft | 444 kts | 105° |
| 2026-05-03 21:28 | 52.84833 | 2.09329 | 29715 ft | 442 kts | 105° |
| 2026-05-03 21:28 | 52.84209 | 2.14346 | 29119 ft | 439 kts | 105° |
| 2026-05-03 21:29 | 52.83603 | 2.19211 | 28542 ft | 436 kts | 105° |
| 2026-05-03 21:29 | 52.82988 | 2.24117 | 27958 ft | 433 kts | 105° |
| 2026-05-03 21:29 | 52.82384 | 2.28926 | 27386 ft | 430 kts | 105° |
| 2026-05-03 21:29 | 52.81781 | 2.33706 | 26814 ft | 427 kts | 105° |
| 2026-05-03 21:30 | 52.81173 | 2.38515 | 26235 ft | 424 kts | 105° |
| 2026-05-03 21:30 | 52.80573 | 2.43239 | 25667 ft | 421 kts | 105° |
| 2026-05-03 21:30 | 52.79975 | 2.47933 | 25102 ft | 418 kts | 105° |
| 2026-05-03 21:30 | 52.79391 | 2.52516 | 24915 ft | 405 kts | 105° |
| 2026-05-03 21:31 | 52.78820 | 2.56997 | 24879 ft | 391 kts | 105° |
| 2026-05-03 21:31 | 52.78272 | 2.61281 | 24900 ft | 384 kts | 105° |
| 2026-05-03 21:31 | 52.77714 | 2.65592 | 24910 ft | 389 kts | 106° |
| 2026-05-03 21:31 | 52.77133 | 2.70033 | 24881 ft | 394 kts | 106° |
| 2026-05-03 21:32 | 52.76558 | 2.74441 | 24604 ft | 391 kts | 106° |
| 2026-05-03 21:32 | 52.75994 | 2.78764 | 24350 ft | 390 kts | 106° |
| 2026-05-03 21:32 | 52.75421 | 2.83150 | 24095 ft | 392 kts | 106° |
| 2026-05-03 21:32 | 52.74844 | 2.87543 | 23837 ft | 394 kts | 106° |
| 2026-05-03 21:33 | 52.74262 | 2.91945 | 23551 ft | 391 kts | 106° |
| 2026-05-03 21:33 | 52.73635 | 2.96246 | 23166 ft | 384 kts | 109° |
| 2026-05-03 21:33 | 52.72797 | 3.00388 | 22872 ft | 373 kts | 116° |
| 2026-05-03 21:33 | 52.71712 | 3.04271 | 22001 ft | 380 kts | 121° |
| 2026-05-03 21:34 | 52.70452 | 3.08022 | 21547 ft | 374 kts | 124° |
| 2026-05-03 21:34 | 52.69145 | 3.11684 | 21022 ft | 371 kts | 124° |
| 2026-05-03 21:34 | 52.67822 | 3.15332 | 20497 ft | 370 kts | 124° |
| 2026-05-03 21:34 | 52.66529 | 3.18903 | 19996 ft | 367 kts | 124° |
| 2026-05-03 21:35 | 52.65237 | 3.22490 | 19279 ft | 365 kts | 124° |
| 2026-05-03 21:35 | 52.63952 | 3.26078 | 18547 ft | 360 kts | 123° |
| 2026-05-03 21:35 | 52.62708 | 3.29565 | 18045 ft | 353 kts | 123° |
| 2026-05-03 21:35 | 52.61474 | 3.33026 | 17496 ft | 353 kts | 123° |
| 2026-05-03 21:36 | 52.60245 | 3.36489 | 16998 ft | 352 kts | 122° |
| 2026-05-03 21:36 | 52.59113 | 3.40072 | 16503 ft | 351 kts | 116° |
| 2026-05-03 21:36 | 52.58291 | 3.43784 | 16013 ft | 352 kts | 108° |
| 2026-05-03 21:36 | 52.57731 | 3.47688 | 15513 ft | 352 kts | 103° |
| 2026-05-03 21:37 | 52.57300 | 3.51643 | 15012 ft | 351 kts | 101° |
| 2026-05-03 21:37 | 52.56920 | 3.55572 | 14514 ft | 350 kts | 100° |
| 2026-05-03 21:37 | 52.56542 | 3.59490 | 14015 ft | 348 kts | 100° |
| 2026-05-03 21:37 | 52.56150 | 3.63409 | 13542 ft | 346 kts | 101° |
| 2026-05-03 21:38 | 52.55758 | 3.67198 | 13326 ft | 329 kts | 102° |
| 2026-05-03 21:38 | 52.55369 | 3.70876 | 12919 ft | 319 kts | 102° |
| 2026-05-03 21:38 | 52.54997 | 3.74350 | 12673 ft | 304 kts | 102° |
| 2026-05-03 21:38 | 52.54634 | 3.77704 | 12434 ft | 291 kts | 102° |
| 2026-05-03 21:39 | 52.54289 | 3.80867 | 12235 ft | 278 kts | 102° |
| 2026-05-03 21:39 | 52.53958 | 3.83900 | 12066 ft | 264 kts | 103° |
| 2026-05-03 21:39 | 52.53637 | 3.86828 | 11701 ft | 261 kts | 103° |
| 2026-05-03 21:39 | 52.53317 | 3.89730 | 11303 ft | 259 kts | 103° |
| 2026-05-03 21:40 | 52.53001 | 3.92607 | 10889 ft | 257 kts | 103° |
| 2026-05-03 21:40 | 52.52680 | 3.95504 | 10476 ft | 255 kts | 104° |
| 2026-05-03 21:40 | 52.52227 | 3.98287 | 10042 ft | 252 kts | 112° |
| 2026-05-03 21:40 | 52.51603 | 4.00922 | 9651 ft | 249 kts | 116° |
| 2026-05-03 21:41 | 52.50930 | 4.03535 | 9245 ft | 248 kts | 116° |
| 2026-05-03 21:41 | 52.50267 | 4.06130 | 8845 ft | 246 kts | 115° |
| 2026-05-03 21:41 | 52.49625 | 4.08717 | 8462 ft | 244 kts | 115° |
| 2026-05-03 21:41 | 52.48996 | 4.11289 | 8026 ft | 244 kts | 115° |
| 2026-05-03 21:42 | 52.48373 | 4.13839 | 7748 ft | 241 kts | 115° |
| 2026-05-03 21:42 | 52.47751 | 4.16380 | 7737 ft | 239 kts | 115° |
| 2026-05-03 21:42 | 52.47122 | 4.18943 | 7765 ft | 245 kts | 115° |
| 2026-05-03 21:42 | 52.46488 | 4.21532 | 7760 ft | 248 kts | 114° |
| 2026-05-03 21:43 | 52.45842 | 4.24165 | 7720 ft | 247 kts | 115° |
| 2026-05-03 21:43 | 52.45201 | 4.26764 | 7737 ft | 247 kts | 115° |
| 2026-05-03 21:43 | 52.44554 | 4.29383 | 7747 ft | 247 kts | 114° |
| 2026-05-03 21:43 | 52.43910 | 4.31990 | 7713 ft | 247 kts | 115° |
| 2026-05-03 21:44 | 52.43350 | 4.34644 | 7723 ft | 249 kts | 104° |
| 2026-05-03 21:44 | 52.43343 | 4.37483 | 7691 ft | 254 kts | 72° |
| 2026-05-03 21:44 | 52.44250 | 4.39915 | 7690 ft | 253 kts | 39° |
| 2026-05-03 21:44 | 52.45730 | 4.41438 | 7714 ft | 250 kts | 22° |
| 2026-05-03 21:45 | 52.47312 | 4.42632 | 7689 ft | 250 kts | 22° |
| 2026-05-03 21:45 | 52.48892 | 4.43850 | 7468 ft | 258 kts | 22° |
| 2026-05-03 21:45 | 52.50532 | 4.45131 | 7053 ft | 259 kts | 23° |
| 2026-05-03 21:45 | 52.52118 | 4.46368 | 6837 ft | 249 kts | 22° |
| 2026-05-03 21:46 | 52.53672 | 4.47575 | 6615 ft | 245 kts | 22° |
| 2026-05-03 21:46 | 52.55226 | 4.48781 | 6281 ft | 247 kts | 22° |
| 2026-05-03 21:46 | 52.56733 | 4.50054 | 6045 ft | 245 kts | 30° |
| 2026-05-03 21:46 | 52.57996 | 4.51937 | 5751 ft | 246 kts | 58° |
| 2026-05-03 21:47 | 52.58493 | 4.54572 | 5541 ft | 241 kts | 88° |
| 2026-05-03 21:47 | 52.58481 | 4.57319 | 5257 ft | 242 kts | 93° |
| 2026-05-03 21:47 | 52.58420 | 4.60053 | 4986 ft | 241 kts | 92° |
| 2026-05-03 21:47 | 52.58358 | 4.62800 | 4730 ft | 239 kts | 96° |
| 2026-05-03 21:48 | 52.57986 | 4.65423 | 4466 ft | 235 kts | 120° |
| 2026-05-03 21:48 | 52.57030 | 4.67505 | 4242 ft | 226 kts | 137° |
| 2026-05-03 21:48 | 52.55919 | 4.69304 | 3974 ft | 220 kts | 138° |
| 2026-05-03 21:48 | 52.54866 | 4.71073 | 3751 ft | 212 kts | 136° |
| 2026-05-03 21:49 | 52.53822 | 4.72687 | 3557 ft | 200 kts | 148° |
| 2026-05-03 21:49 | 52.52600 | 4.73578 | 3435 ft | 185 kts | 169° |
| 2026-05-03 21:49 | 52.51392 | 4.74062 | 3295 ft | 177 kts | 169° |
| 2026-05-03 21:49 | 52.50222 | 4.74658 | 3131 ft | 176 kts | 167° |
| 2026-05-03 21:50 | 52.49030 | 4.75032 | 2982 ft | 173 kts | 178° |
| 2026-05-03 21:50 | 52.47832 | 4.75126 | 2902 ft | 170 kts | 183° |
| 2026-05-03 21:50 | 52.46635 | 4.75117 | 2720 ft | 177 kts | 184° |
| 2026-05-03 21:50 | 52.45410 | 4.75058 | 2442 ft | 172 kts | 185° |
| 2026-05-03 21:51 | 52.44238 | 4.74978 | 2241 ft | 159 kts | 186° |
| 2026-05-03 21:51 | 52.43176 | 4.74895 | 1949 ft | 147 kts | 186° |
| 2026-05-03 21:51 | 52.42228 | 4.74818 | 1774 ft | 131 kts | 187° |
| 2026-05-03 21:51 | 52.41333 | 4.74739 | 1622 ft | 127 kts | 186° |
| 2026-05-03 21:52 | 52.40451 | 4.74661 | 1459 ft | 126 kts | 186° |
| 2026-05-03 21:52 | 52.39573 | 4.74582 | 1285 ft | 125 kts | 186° |
| 2026-05-03 21:52 | 52.38705 | 4.74503 | 1113 ft | 124 kts | 186° |
| 2026-05-03 21:52 | 52.37846 | 4.74425 | 947 ft | 123 kts | 186° |
| 2026-05-03 21:53 | 52.37000 | 4.74348 | 786 ft | 123 kts | 186° |
| 2026-05-03 21:53 | 52.36166 | 4.74273 | 588 ft | 117 kts | 186° |
| 2026-05-03 21:53 | 52.35334 | 4.74197 | 530 ft | 123 kts | 186° |
| 2026-05-03 21:53 | 52.34436 | 4.74114 | 415 ft | 133 kts | 186° |
| 2026-05-03 21:54 | 52.33516 | 4.74041 | 184 ft | 133 kts | 186° |
| 2026-05-03 21:54 | 52.32611 | 4.73965 | -4 ft | 123 kts | 185° |
| 2026-05-03 21:54 | 52.31775 | 4.73879 | -2 ft | 114 kts | 185° |
| 2026-05-03 21:54 | 52.31110 | 4.73819 | -4 ft | 69 kts | 182° |
| 2026-05-03 21:55 | 52.30883 | 4.73793 | -8 ft | 20 kts | 184° |
| 2026-05-03 21:55 | 52.30750 | 4.73816 | -9 ft | 18 kts | 161° |
| 2026-05-03 21:55 | 52.30637 | 4.73902 | -9 ft | 13 kts | 152° |
| 2026-05-03 21:55 | 52.30601 | 4.73963 | -9 ft | 0 kts | 107° |
| 2026-05-03 21:57 | 52.30598 | 4.73979 | -9 ft | 4 kts | 107° |
| 2026-05-03 21:57 | 52.30568 | 4.74046 | -10 ft | 10 kts | 154° |
| 2026-05-03 21:58 | 52.30484 | 4.74053 | -10 ft | 8 kts | 182° |
| 2026-05-03 21:58 | 52.30416 | 4.74123 | -11 ft | 15 kts | 130° |
| 2026-05-03 21:58 | 52.30341 | 4.74264 | -11 ft | 15 kts | 131° |
| 2026-05-03 21:58 | 52.30268 | 4.74401 | -8 ft | 17 kts | 131° |
| 2026-05-03 21:59 | 52.30179 | 4.74565 | -4 ft | 21 kts | 131° |
| 2026-05-03 21:59 | 52.30085 | 4.74741 | 0 ft | 18 kts | 131° |
| 2026-05-03 21:59 | 52.30002 | 4.74894 | 2 ft | 18 kts | 131° |
| 2026-05-03 21:59 | 52.29911 | 4.75060 | 3 ft | 21 kts | 133° |
| 2026-05-03 22:00 | 52.29830 | 4.75212 | 1 ft | 16 kts | 133° |
| 2026-05-03 22:00 | 52.29776 | 4.75338 | -1 ft | 15 kts | 103° |
| 2026-05-03 22:00 | 52.29803 | 4.75501 | 0 ft | 15 kts | 58° |
| 2026-05-03 22:00 | 52.29861 | 4.75652 | -2 ft | 16 kts | 58° |
| 2026-05-03 22:01 | 52.29920 | 4.75805 | -1 ft | 15 kts | 57° |
| 2026-05-03 22:01 | 52.29975 | 4.75946 | 0 ft | 14 kts | 58° |
| 2026-05-03 22:01 | 52.30028 | 4.76083 | 0 ft | 14 kts | 58° |
| 2026-05-03 22:01 | 52.30083 | 4.76229 | -1 ft | 13 kts | 57° |
| 2026-05-03 22:02 | 52.30139 | 4.76281 | 0 ft | 7 kts | 346° |
| 2026-05-03 22:02 | 52.30190 | 4.76268 | 0 ft | 7 kts | 346° |
| 2026-05-03 22:02 | 52.30237 | 4.76234 | 1 ft | 5 kts | 331° |
| 2026-05-03 22:02 | 52.30266 | 4.76234 | 1 ft | 4 kts | 41° |
| 2026-05-03 22:03 | 52.30277 | 4.76260 | 2 ft | 0 kts | 57° |